sensor_id;sensor_type;location;lat;lon;timestamp;temperature;humidity
20929;DHT22;21895;47.072;15.132;2023-04-01T00:01:12;8.70;99.90
20929;DHT22;21895;47.072;15.132;2023-04-01T00:03:39;8.70;99.90
20929;DHT22;21895;47.072;15.132;2023-04-01T00:06:07;8.70;99.90
20929;DHT22;21895;47.072;15.132;2023-04-01T00:08:35;8.60;99.90
20929;DHT22;21895;47.072;15.132;2023-04-01T00:11:01;8.50;99.90
20929;DHT22;21895;47.072;15.132;2023-04-01T00:13:28;8.40;99.90
20929;DHT22;21895;47.072;15.132;2023-04-01T00:15:55;8.40;99.90
20929;DHT22;21895;47.072;15.132;2023-04-01T00:18:23;8.40;99.90
20929;DHT22;21895;47.072;15.132;2023-04-01T00:20:51;8.40;99.90
20929;DHT22;21895;47.072;15.132;2023-04-01T00:23:18;8.30;99.90
20929;DHT22;21895;47.072;15.132;2023-04-01T00:25:46;8.40;99.90
20929;DHT22;21895;47.072;15.132;2023-04-01T00:28:18;8.40;99.90
20929;DHT22;21895;47.072;15.132;2023-04-01T00:30:46;8.40;99.90
20929;DHT22;21895;47.072;15.132;2023-04-01T00:33:13;8.40;99.90
20929;DHT22;21895;47.072;15.132;2023-04-01T00:35:41;8.30;99.90
20929;DHT22;21895;47.072;15.132;2023-04-01T00:38:07;8.40;99.90
20929;DHT22;21895;47.072;15.132;2023-04-01T00:40:37;8.30;99.90
20929;DHT22;21895;47.072;15.132;2023-04-01T00:43:15;8.30;99.90
20929;DHT22;21895;47.072;15.132;2023-04-01T00:45:48;8.10;99.90
20929;DHT22;21895;47.072;15.132;2023-04-01T00:48:18;8.20;99.90
20929;DHT22;21895;47.072;15.132;2023-04-01T00:50:54;8.20;99.90
20929;DHT22;21895;47.072;15.132;2023-04-01T00:53:37;8.20;99.90
20929;DHT22;21895;47.072;15.132;2023-04-01T00:56:25;8.20;99.90
20929;DHT22;21895;47.072;15.132;2023-04-01T00:59:10;8.30;99.90
20929;DHT22;21895;47.072;15.132;2023-04-01T01:01:40;8.20;99.90
20929;DHT22;21895;47.072;15.132;2023-04-01T01:04:21;8.20;99.90
20929;DHT22;21895;47.072;15.132;2023-04-01T01:08:10;8.20;99.90
20929;DHT22;21895;47.072;15.132;2023-04-01T01:10:51;8.20;99.90
20929;DHT22;21895;47.072;15.132;2023-04-01T01:13:32;8.20;99.90
20929;DHT22;21895;47.072;15.132;2023-04-01T01:16:27;8.10;99.90
20929;DHT22;21895;47.072;15.132;2023-04-01T01:19:12;8.20;99.90
20929;DHT22;21895;47.072;15.132;2023-04-01T01:24:05;8.10;99.90
20929;DHT22;21895;47.072;15.132;2023-04-01T01:34:02;8.20;99.90
20929;DHT22;21895;47.072;15.132;2023-04-01T01:39:09;8.20;99.90
20929;DHT22;21895;47.072;15.132;2023-04-01T01:41:37;8.30;99.90
20929;DHT22;21895;47.072;15.132;2023-04-01T01:44:07;8.30;99.90
20929;DHT22;21895;47.072;15.132;2023-04-01T01:46:36;8.20;99.90
20929;DHT22;21895;47.072;15.132;2023-04-01T01:49:06;8.20;99.90
20929;DHT22;21895;47.072;15.132;2023-04-01T01:51:36;8.30;99.90
20929;DHT22;21895;47.072;15.132;2023-04-01T01:54:02;8.20;99.90
20929;DHT22;21895;47.072;15.132;2023-04-01T01:56:29;8.10;99.90
20929;DHT22;21895;47.072;15.132;2023-04-01T01:59:04;8.00;99.90
20929;DHT22;21895;47.072;15.132;2023-04-01T02:01:39;8.10;99.90
20929;DHT22;21895;47.072;15.132;2023-04-01T02:04:09;8.00;99.90
20929;DHT22;21895;47.072;15.132;2023-04-01T02:06:39;7.90;99.90
20929;DHT22;21895;47.072;15.132;2023-04-01T02:09:12;8.00;99.90
20929;DHT22;21895;47.072;15.132;2023-04-01T02:11:47;7.90;99.90
20929;DHT22;21895;47.072;15.132;2023-04-01T02:14:23;8.00;99.90
20929;DHT22;21895;47.072;15.132;2023-04-01T02:17:25;7.90;99.90
20929;DHT22;21895;47.072;15.132;2023-04-01T02:20:17;7.90;99.90
20929;DHT22;21895;47.072;15.132;2023-04-01T02:22:54;7.80;99.90
20929;DHT22;21895;47.072;15.132;2023-04-01T02:25:27;7.70;99.90
20929;DHT22;21895;47.072;15.132;2023-04-01T02:28:01;7.60;99.90
20929;DHT22;21895;47.072;15.132;2023-04-01T02:30:33;7.60;99.90
20929;DHT22;21895;47.072;15.132;2023-04-01T02:33:02;7.50;99.90
20929;DHT22;21895;47.072;15.132;2023-04-01T02:35:32;7.50;99.90
20929;DHT22;21895;47.072;15.132;2023-04-01T02:38:00;7.60;99.90
20929;DHT22;21895;47.072;15.132;2023-04-01T02:40:27;7.60;99.90
20929;DHT22;21895;47.072;15.132;2023-04-01T02:42:54;7.60;99.90
20929;DHT22;21895;47.072;15.132;2023-04-01T02:45:20;7.60;99.90
20929;DHT22;21895;47.072;15.132;2023-04-01T02:47:47;7.40;99.90
20929;DHT22;21895;47.072;15.132;2023-04-01T02:50:14;7.30;99.90
20929;DHT22;21895;47.072;15.132;2023-04-01T02:52:41;7.30;99.90
20929;DHT22;21895;47.072;15.132;2023-04-01T02:55:08;7.20;99.90
20929;DHT22;21895;47.072;15.132;2023-04-01T02:57:35;7.20;99.90
20929;DHT22;21895;47.072;15.132;2023-04-01T03:00:02;7.20;99.90
20929;DHT22;21895;47.072;15.132;2023-04-01T03:02:29;7.20;99.90
20929;DHT22;21895;47.072;15.132;2023-04-01T03:04:56;7.10;99.90
20929;DHT22;21895;47.072;15.132;2023-04-01T03:07:23;7.10;99.90
20929;DHT22;21895;47.072;15.132;2023-04-01T03:09:50;7.10;99.90
20929;DHT22;21895;47.072;15.132;2023-04-01T03:12:17;7.10;99.90
20929;DHT22;21895;47.072;15.132;2023-04-01T03:14:43;7.00;99.90
20929;DHT22;21895;47.072;15.132;2023-04-01T03:17:10;7.00;99.90
20929;DHT22;21895;47.072;15.132;2023-04-01T03:19:36;6.90;99.90
20929;DHT22;21895;47.072;15.132;2023-04-01T03:22:03;6.70;99.90
20929;DHT22;21895;47.072;15.132;2023-04-01T03:24:29;6.60;99.90
20929;DHT22;21895;47.072;15.132;2023-04-01T03:26:55;6.50;99.90
20929;DHT22;21895;47.072;15.132;2023-04-01T03:29:22;6.50;99.90
20929;DHT22;21895;47.072;15.132;2023-04-01T03:31:48;6.60;99.90
20929;DHT22;21895;47.072;15.132;2023-04-01T03:34:15;6.60;99.90
20929;DHT22;21895;47.072;15.132;2023-04-01T03:36:41;6.50;99.90
20929;DHT22;21895;47.072;15.132;2023-04-01T03:39:08;6.50;99.90
20929;DHT22;21895;47.072;15.132;2023-04-01T03:41:38;6.70;99.90
20929;DHT22;21895;47.072;15.132;2023-04-01T03:44:05;6.90;99.90
20929;DHT22;21895;47.072;15.132;2023-04-01T03:46:32;7.00;99.90
20929;DHT22;21895;47.072;15.132;2023-04-01T03:48:58;6.90;99.90
20929;DHT22;21895;47.072;15.132;2023-04-01T03:51:25;6.80;99.90
20929;DHT22;21895;47.072;15.132;2023-04-01T03:53:51;6.60;99.90
20929;DHT22;21895;47.072;15.132;2023-04-01T03:56:18;6.60;99.90
20929;DHT22;21895;47.072;15.132;2023-04-01T03:58:44;6.50;99.90
20929;DHT22;21895;47.072;15.132;2023-04-01T04:01:16;6.50;99.90
20929;DHT22;21895;47.072;15.132;2023-04-01T04:03:44;6.60;99.90
20929;DHT22;21895;47.072;15.132;2023-04-01T04:06:13;6.60;99.90
20929;DHT22;21895;47.072;15.132;2023-04-01T04:08:40;6.70;99.90
20929;DHT22;21895;47.072;15.132;2023-04-01T04:11:06;6.60;99.90
20929;DHT22;21895;47.072;15.132;2023-04-01T04:13:34;6.60;99.90
20929;DHT22;21895;47.072;15.132;2023-04-01T04:16:03;6.90;99.90
20929;DHT22;21895;47.072;15.132;2023-04-01T04:18:29;6.90;99.90
20929;DHT22;21895;47.072;15.132;2023-04-01T04:20:56;6.80;99.90
20929;DHT22;21895;47.072;15.132;2023-04-01T04:23:23;6.60;99.90
20929;DHT22;21895;47.072;15.132;2023-04-01T04:26:01;6.50;99.90
20929;DHT22;21895;47.072;15.132;2023-04-01T04:28:32;6.40;99.90
20929;DHT22;21895;47.072;15.132;2023-04-01T04:31:00;6.30;99.90
20929;DHT22;21895;47.072;15.132;2023-04-01T04:33:27;6.20;99.90
20929;DHT22;21895;47.072;15.132;2023-04-01T04:35:58;6.10;99.90
20929;DHT22;21895;47.072;15.132;2023-04-01T04:38:26;6.20;99.90
20929;DHT22;21895;47.072;15.132;2023-04-01T04:40:53;6.20;99.90
20929;DHT22;21895;47.072;15.132;2023-04-01T04:43:20;6.10;99.90
20929;DHT22;21895;47.072;15.132;2023-04-01T04:45:47;6.10;99.90
20929;DHT22;21895;47.072;15.132;2023-04-01T04:48:14;6.10;99.90
20929;DHT22;21895;47.072;15.132;2023-04-01T04:50:50;6.00;99.90
20929;DHT22;21895;47.072;15.132;2023-04-01T04:53:18;6.00;99.90
20929;DHT22;21895;47.072;15.132;2023-04-01T04:55:49;6.10;99.90
20929;DHT22;21895;47.072;15.132;2023-04-01T04:58:16;6.20;99.90
20929;DHT22;21895;47.072;15.132;2023-04-01T05:00:43;6.40;99.90
20929;DHT22;21895;47.072;15.132;2023-04-01T05:03:11;6.30;99.90
20929;DHT22;21895;47.072;15.132;2023-04-01T05:05:39;6.40;99.90
20929;DHT22;21895;47.072;15.132;2023-04-01T05:08:06;6.30;99.90
20929;DHT22;21895;47.072;15.132;2023-04-01T05:10:32;6.30;99.90
20929;DHT22;21895;47.072;15.132;2023-04-01T05:12:59;6.30;99.90
20929;DHT22;21895;47.072;15.132;2023-04-01T05:15:25;6.40;99.90
20929;DHT22;21895;47.072;15.132;2023-04-01T05:17:52;6.30;99.90
20929;DHT22;21895;47.072;15.132;2023-04-01T05:20:19;6.30;99.90
20929;DHT22;21895;47.072;15.132;2023-04-01T05:22:45;6.30;99.90
20929;DHT22;21895;47.072;15.132;2023-04-01T05:25:12;6.40;99.90
20929;DHT22;21895;47.072;15.132;2023-04-01T05:27:38;6.50;99.90
20929;DHT22;21895;47.072;15.132;2023-04-01T05:30:06;6.60;99.90
20929;DHT22;21895;47.072;15.132;2023-04-01T05:32:33;6.60;99.90
20929;DHT22;21895;47.072;15.132;2023-04-01T05:34:59;6.70;99.90
20929;DHT22;21895;47.072;15.132;2023-04-01T05:37:26;6.70;99.90
20929;DHT22;21895;47.072;15.132;2023-04-01T05:39:52;6.70;99.90
20929;DHT22;21895;47.072;15.132;2023-04-01T05:42:19;6.70;99.90
20929;DHT22;21895;47.072;15.132;2023-04-01T05:44:45;6.90;99.90
20929;DHT22;21895;47.072;15.132;2023-04-01T05:47:12;7.00;99.90
20929;DHT22;21895;47.072;15.132;2023-04-01T05:49:38;7.20;99.90
20929;DHT22;21895;47.072;15.132;2023-04-01T05:52:05;7.30;99.90
20929;DHT22;21895;47.072;15.132;2023-04-01T05:54:31;7.40;99.90
20929;DHT22;21895;47.072;15.132;2023-04-01T05:56:58;7.60;99.90
20929;DHT22;21895;47.072;15.132;2023-04-01T05:59:25;7.70;99.90
20929;DHT22;21895;47.072;15.132;2023-04-01T06:01:51;7.90;99.90
20929;DHT22;21895;47.072;15.132;2023-04-01T06:04:18;8.10;99.90
20929;DHT22;21895;47.072;15.132;2023-04-01T06:06:46;8.30;99.90
20929;DHT22;21895;47.072;15.132;2023-04-01T06:09:24;8.40;99.90
20929;DHT22;21895;47.072;15.132;2023-04-01T06:12:45;8.50;99.90
20929;DHT22;21895;47.072;15.132;2023-04-01T06:15:55;8.50;99.90
20929;DHT22;21895;47.072;15.132;2023-04-01T06:35:45;9.40;99.90
20929;DHT22;21895;47.072;15.132;2023-04-01T06:38:47;10.00;99.90
20929;DHT22;21895;47.072;15.132;2023-04-01T06:43:54;10.50;99.90
20929;DHT22;21895;47.072;15.132;2023-04-01T06:50:29;11.30;99.90
20929;DHT22;21895;47.072;15.132;2023-04-01T06:53:15;11.90;99.90
20929;DHT22;21895;47.072;15.132;2023-04-01T06:56:12;12.00;99.90
20929;DHT22;21895;47.072;15.132;2023-04-01T07:02:20;12.30;99.90
20929;DHT22;21895;47.072;15.132;2023-04-01T07:04:53;12.70;99.90
20929;DHT22;21895;47.072;15.132;2023-04-01T07:07:38;13.10;99.60
20929;DHT22;21895;47.072;15.132;2023-04-01T07:11:02;13.50;98.90
20929;DHT22;21895;47.072;15.132;2023-04-01T07:13:58;13.90;97.30
20929;DHT22;21895;47.072;15.132;2023-04-01T07:17:52;14.30;96.20
20929;DHT22;21895;47.072;15.132;2023-04-01T07:20:26;14.70;94.10
20929;DHT22;21895;47.072;15.132;2023-04-01T07:22:59;15.00;93.30
20929;DHT22;21895;47.072;15.132;2023-04-01T07:25:34;15.60;92.30
20929;DHT22;21895;47.072;15.132;2023-04-01T07:28:11;15.70;91.00
20929;DHT22;21895;47.072;15.132;2023-04-01T07:31:01;15.90;91.30
20929;DHT22;21895;47.072;15.132;2023-04-01T07:34:04;15.80;91.30
20929;DHT22;21895;47.072;15.132;2023-04-01T07:45:03;15.80;88.20
20929;DHT22;21895;47.072;15.132;2023-04-01T07:49:15;16.00;86.10
20929;DHT22;21895;47.072;15.132;2023-04-01T07:52:00;15.70;88.70
20929;DHT22;21895;47.072;15.132;2023-04-01T07:54:43;15.70;87.00
20929;DHT22;21895;47.072;15.132;2023-04-01T07:58:49;15.80;84.90
20929;DHT22;21895;47.072;15.132;2023-04-01T08:01:52;15.70;86.10
20929;DHT22;21895;47.072;15.132;2023-04-01T08:09:50;15.70;84.20
20929;DHT22;21895;47.072;15.132;2023-04-01T08:18:54;15.80;86.30
20929;DHT22;21895;47.072;15.132;2023-04-01T08:21:45;15.90;86.30
20929;DHT22;21895;47.072;15.132;2023-04-01T08:24:29;15.90;83.80
20929;DHT22;21895;47.072;15.132;2023-04-01T08:28:22;15.90;82.50
20929;DHT22;21895;47.072;15.132;2023-04-01T08:31:12;15.60;83.20
20929;DHT22;21895;47.072;15.132;2023-04-01T08:33:46;15.30;82.80
20929;DHT22;21895;47.072;15.132;2023-04-01T08:36:30;14.90;81.30
20929;DHT22;21895;47.072;15.132;2023-04-01T08:39:14;14.70;83.40
20929;DHT22;21895;47.072;15.132;2023-04-01T08:49:14;15.00;81.60
20929;DHT22;21895;47.072;15.132;2023-04-01T08:58:22;15.10;83.10
20929;DHT22;21895;47.072;15.132;2023-04-01T09:08:09;15.60;80.30
20929;DHT22;21895;47.072;15.132;2023-04-01T09:21:27;15.70;80.50
20929;DHT22;21895;47.072;15.132;2023-04-01T09:31:18;16.70;77.80
20929;DHT22;21895;47.072;15.132;2023-04-01T09:34:25;16.40;75.00
20929;DHT22;21895;47.072;15.132;2023-04-01T09:39:43;16.30;75.90
20929;DHT22;21895;47.072;15.132;2023-04-01T09:46:18;15.40;76.70
20929;DHT22;21895;47.072;15.132;2023-04-01T09:49:18;15.30;78.80
20929;DHT22;21895;47.072;15.132;2023-04-01T09:55:19;15.10;77.00
20929;DHT22;21895;47.072;15.132;2023-04-01T10:10:51;14.60;79.60
20929;DHT22;21895;47.072;15.132;2023-04-01T10:21:43;15.10;77.60
20929;DHT22;21895;47.072;15.132;2023-04-01T10:24:53;15.30;77.10
20929;DHT22;21895;47.072;15.132;2023-04-01T10:27:49;15.10;77.10
20929;DHT22;21895;47.072;15.132;2023-04-01T10:36:57;15.30;77.60
20929;DHT22;21895;47.072;15.132;2023-04-01T10:40:26;15.50;76.20
20929;DHT22;21895;47.072;15.132;2023-04-01T10:54:36;16.00;76.50
20929;DHT22;21895;47.072;15.132;2023-04-01T10:57:51;16.20;72.60
20929;DHT22;21895;47.072;15.132;2023-04-01T11:24:35;16.00;72.30
20929;DHT22;21895;47.072;15.132;2023-04-01T11:45:15;15.30;73.40
20929;DHT22;21895;47.072;15.132;2023-04-01T11:52:47;16.00;73.80
20929;DHT22;21895;47.072;15.132;2023-04-01T12:06:55;16.20;74.30
20929;DHT22;21895;47.072;15.132;2023-04-01T12:10:15;16.00;72.30
20929;DHT22;21895;47.072;15.132;2023-04-01T12:13:02;15.90;72.90
20929;DHT22;21895;47.072;15.132;2023-04-01T12:18:45;16.00;72.70
20929;DHT22;21895;47.072;15.132;2023-04-01T12:21:37;15.80;72.20
20929;DHT22;21895;47.072;15.132;2023-04-01T12:28:59;15.70;72.30
20929;DHT22;21895;47.072;15.132;2023-04-01T12:41:59;15.90;71.50
20929;DHT22;21895;47.072;15.132;2023-04-01T12:47:51;16.30;70.80
20929;DHT22;21895;47.072;15.132;2023-04-01T12:51:02;16.10;71.80
20929;DHT22;21895;47.072;15.132;2023-04-01T12:55:52;16.20;70.10
20929;DHT22;21895;47.072;15.132;2023-04-01T12:59:24;16.40;70.70
20929;DHT22;21895;47.072;15.132;2023-04-01T13:13:53;16.60;69.70
20929;DHT22;21895;47.072;15.132;2023-04-01T13:24:22;17.00;67.30
20929;DHT22;21895;47.072;15.132;2023-04-01T13:30:33;17.40;65.70
20929;DHT22;21895;47.072;15.132;2023-04-01T13:33:41;17.10;63.50
20929;DHT22;21895;47.072;15.132;2023-04-01T13:36:40;17.30;65.50
20929;DHT22;21895;47.072;15.132;2023-04-01T13:41:00;17.50;65.80
20929;DHT22;21895;47.072;15.132;2023-04-01T13:47:09;17.40;63.10
20929;DHT22;21895;47.072;15.132;2023-04-01T14:00:23;17.20;63.40
20929;DHT22;21895;47.072;15.132;2023-04-01T14:06:58;16.60;63.00
20929;DHT22;21895;47.072;15.132;2023-04-01T14:10:38;16.90;63.00
20929;DHT22;21895;47.072;15.132;2023-04-01T14:19:39;17.10;63.50
20929;DHT22;21895;47.072;15.132;2023-04-01T14:23:01;17.10;62.30
20929;DHT22;21895;47.072;15.132;2023-04-01T14:28:18;17.30;62.20
20929;DHT22;21895;47.072;15.132;2023-04-01T14:33:32;17.30;62.00
20929;DHT22;21895;47.072;15.132;2023-04-01T14:43:54;17.20;62.00
20929;DHT22;21895;47.072;15.132;2023-04-01T14:53:38;17.00;61.30
20929;DHT22;21895;47.072;15.132;2023-04-01T14:56:11;17.10;61.50
20929;DHT22;21895;47.072;15.132;2023-04-01T14:58:47;17.10;62.30
20929;DHT22;21895;47.072;15.132;2023-04-01T15:01:50;17.20;63.00
20929;DHT22;21895;47.072;15.132;2023-04-01T15:20:50;17.50;61.80
20929;DHT22;21895;47.072;15.132;2023-04-01T15:28:31;17.20;63.80
20929;DHT22;21895;47.072;15.132;2023-04-01T15:46:57;16.70;66.30
20929;DHT22;21895;47.072;15.132;2023-04-01T15:49:46;16.30;67.00
20929;DHT22;21895;47.072;15.132;2023-04-01T15:53:18;16.20;67.20
20929;DHT22;21895;47.072;15.132;2023-04-01T16:07:21;16.10;68.70
20929;DHT22;21895;47.072;15.132;2023-04-01T16:22:56;15.80;72.20
20929;DHT22;21895;47.072;15.132;2023-04-01T16:25:40;15.70;72.40
20929;DHT22;21895;47.072;15.132;2023-04-01T16:30:38;15.70;73.70
20929;DHT22;21895;47.072;15.132;2023-04-01T16:43:48;15.00;78.00
20929;DHT22;21895;47.072;15.132;2023-04-01T16:47:27;14.70;76.60
20929;DHT22;21895;47.072;15.132;2023-04-01T16:50:22;14.50;80.60
20929;DHT22;21895;47.072;15.132;2023-04-01T16:54:02;14.30;83.20
20929;DHT22;21895;47.072;15.132;2023-04-01T16:57:03;14.20;81.30
20929;DHT22;21895;47.072;15.132;2023-04-01T17:00:02;14.20;82.90
20929;DHT22;21895;47.072;15.132;2023-04-01T17:03:27;14.00;86.90
20929;DHT22;21895;47.072;15.132;2023-04-01T17:06:10;13.80;89.60
20929;DHT22;21895;47.072;15.132;2023-04-01T17:19:46;13.40;90.30
20929;DHT22;21895;47.072;15.132;2023-04-01T17:28:11;13.30;90.00
20929;DHT22;21895;47.072;15.132;2023-04-01T17:32:04;13.10;89.90
20929;DHT22;21895;47.072;15.132;2023-04-01T17:37:30;13.00;89.10
20929;DHT22;21895;47.072;15.132;2023-04-01T17:40:24;12.90;88.60
20929;DHT22;21895;47.072;15.132;2023-04-01T17:53:12;12.80;91.40
20929;DHT22;21895;47.072;15.132;2023-04-01T17:56:28;12.80;86.00
20929;DHT22;21895;47.072;15.132;2023-04-01T18:01:31;13.00;86.20
20929;DHT22;21895;47.072;15.132;2023-04-01T18:04:54;13.30;85.50
20929;DHT22;21895;47.072;15.132;2023-04-01T18:14:58;13.00;92.30
20929;DHT22;21895;47.072;15.132;2023-04-01T18:21:42;12.90;90.00
20929;DHT22;21895;47.072;15.132;2023-04-01T18:24:29;12.90;90.70
20929;DHT22;21895;47.072;15.132;2023-04-01T18:27:40;12.90;90.90
20929;DHT22;21895;47.072;15.132;2023-04-01T18:30:36;12.80;91.00
20929;DHT22;21895;47.072;15.132;2023-04-01T18:33:21;12.70;92.50
20929;DHT22;21895;47.072;15.132;2023-04-01T18:36:48;12.50;93.40
20929;DHT22;21895;47.072;15.132;2023-04-01T18:39:41;12.30;95.50
20929;DHT22;21895;47.072;15.132;2023-04-01T18:49:27;12.00;96.00
20929;DHT22;21895;47.072;15.132;2023-04-01T18:56:14;11.80;98.00
20929;DHT22;21895;47.072;15.132;2023-04-01T19:07:48;11.70;99.20
20929;DHT22;21895;47.072;15.132;2023-04-01T19:11:26;11.80;99.20
20929;DHT22;21895;47.072;15.132;2023-04-01T19:20:51;11.80;99.80
20929;DHT22;21895;47.072;15.132;2023-04-01T19:33:41;11.40;99.90
20929;DHT22;21895;47.072;15.132;2023-04-01T19:36:45;11.50;99.90
20929;DHT22;21895;47.072;15.132;2023-04-01T20:00:40;11.10;99.90
20929;DHT22;21895;47.072;15.132;2023-04-01T20:05:23;11.10;99.90
20929;DHT22;21895;47.072;15.132;2023-04-01T20:10:01;11.20;99.90
20929;DHT22;21895;47.072;15.132;2023-04-01T20:14:36;11.20;99.90
20929;DHT22;21895;47.072;15.132;2023-04-01T20:18:21;11.10;99.90
20929;DHT22;21895;47.072;15.132;2023-04-01T20:20:57;11.20;99.90
20929;DHT22;21895;47.072;15.132;2023-04-01T20:23:43;11.20;99.90
20929;DHT22;21895;47.072;15.132;2023-04-01T20:26:21;11.10;99.90
20929;DHT22;21895;47.072;15.132;2023-04-01T20:29:47;11.10;99.90
20929;DHT22;21895;47.072;15.132;2023-04-01T20:50:31;10.60;99.90
20929;DHT22;21895;47.072;15.132;2023-04-01T21:02:52;10.50;99.90
20929;DHT22;21895;47.072;15.132;2023-04-01T21:14:01;10.30;99.90
20929;DHT22;21895;47.072;15.132;2023-04-01T21:31:41;9.60;99.90
20929;DHT22;21895;47.072;15.132;2023-04-01T21:52:06;9.90;99.70
20929;DHT22;21895;47.072;15.132;2023-04-01T22:01:35;9.60;99.90
20929;DHT22;21895;47.072;15.132;2023-04-01T22:04:54;9.60;99.90
20929;DHT22;21895;47.072;15.132;2023-04-01T22:09:05;9.80;99.90
20929;DHT22;21895;47.072;15.132;2023-04-01T22:23:51;10.10;98.70
20929;DHT22;21895;47.072;15.132;2023-04-01T22:27:12;9.90;99.00
20929;DHT22;21895;47.072;15.132;2023-04-01T22:40:07;9.80;99.00
20929;DHT22;21895;47.072;15.132;2023-04-01T22:42:59;9.80;99.00
20929;DHT22;21895;47.072;15.132;2023-04-01T22:54:26;9.90;98.60
20929;DHT22;21895;47.072;15.132;2023-04-01T22:57:47;9.70;99.90
20929;DHT22;21895;47.072;15.132;2023-04-01T23:00:47;9.40;99.90
20929;DHT22;21895;47.072;15.132;2023-04-01T23:03:29;9.20;99.90
20929;DHT22;21895;47.072;15.132;2023-04-01T23:05:59;9.10;99.90
20929;DHT22;21895;47.072;15.132;2023-04-01T23:14:37;8.90;99.90
20929;DHT22;21895;47.072;15.132;2023-04-01T23:18:57;8.80;99.90
20929;DHT22;21895;47.072;15.132;2023-04-01T23:21:38;8.60;99.90
20929;DHT22;21895;47.072;15.132;2023-04-01T23:24:28;8.50;99.90
20929;DHT22;21895;47.072;15.132;2023-04-01T23:27:08;8.60;99.90
20929;DHT22;21895;47.072;15.132;2023-04-01T23:29:43;8.70;99.90
20929;DHT22;21895;47.072;15.132;2023-04-01T23:32:18;8.80;99.90
20929;DHT22;21895;47.072;15.132;2023-04-01T23:34:53;8.80;99.90
20929;DHT22;21895;47.072;15.132;2023-04-01T23:37:23;8.70;99.90
20929;DHT22;21895;47.072;15.132;2023-04-01T23:39:56;8.60;99.90
20929;DHT22;21895;47.072;15.132;2023-04-01T23:42:32;8.60;99.90
20929;DHT22;21895;47.072;15.132;2023-04-01T23:45:14;8.60;99.90
20929;DHT22;21895;47.072;15.132;2023-04-01T23:47:46;8.80;99.90
20929;DHT22;21895;47.072;15.132;2023-04-01T23:50:23;8.80;99.90
20929;DHT22;21895;47.072;15.132;2023-04-01T23:53:02;9.00;99.90
20929;DHT22;21895;47.072;15.132;2023-04-01T23:55:41;9.00;99.90
20929;DHT22;21895;47.072;15.132;2023-04-01T23:58:53;8.90;99.90
